sensor_id;sensor_type;location;lat;lon;timestamp;temperature;humidity
19435;DHT22;9853;50.848;4.108;2023-07-31T00:01:27;18.10;99.90
19435;DHT22;9853;50.848;4.108;2023-07-31T00:03:27;18.10;99.90
19435;DHT22;9853;50.848;4.108;2023-07-31T00:05:28;18.20;99.90
19435;DHT22;9853;50.848;4.108;2023-07-31T00:07:29;18.30;99.90
19435;DHT22;9853;50.848;4.108;2023-07-31T00:09:30;18.40;99.90
19435;DHT22;9853;50.848;4.108;2023-07-31T00:11:30;18.40;99.90
19435;DHT22;9853;50.848;4.108;2023-07-31T00:13:31;18.40;99.90
19435;DHT22;9853;50.848;4.108;2023-07-31T00:15:32;18.30;99.90
19435;DHT22;9853;50.848;4.108;2023-07-31T00:17:33;18.30;99.90
19435;DHT22;9853;50.848;4.108;2023-07-31T00:19:34;18.30;99.90
19435;DHT22;9853;50.848;4.108;2023-07-31T00:21:34;18.30;99.90
19435;DHT22;9853;50.848;4.108;2023-07-31T00:23:35;18.20;99.90
19435;DHT22;9853;50.848;4.108;2023-07-31T00:25:36;18.30;99.90
19435;DHT22;9853;50.848;4.108;2023-07-31T00:27:37;18.40;99.90
19435;DHT22;9853;50.848;4.108;2023-07-31T00:29:38;18.30;99.90
19435;DHT22;9853;50.848;4.108;2023-07-31T00:31:39;18.20;99.90
19435;DHT22;9853;50.848;4.108;2023-07-31T00:33:40;18.20;99.90
19435;DHT22;9853;50.848;4.108;2023-07-31T00:35:41;18.10;99.90
19435;DHT22;9853;50.848;4.108;2023-07-31T00:37:41;18.30;99.90
19435;DHT22;9853;50.848;4.108;2023-07-31T00:39:42;18.30;99.90
19435;DHT22;9853;50.848;4.108;2023-07-31T00:41:43;18.20;99.90
19435;DHT22;9853;50.848;4.108;2023-07-31T00:43:44;18.20;99.90
19435;DHT22;9853;50.848;4.108;2023-07-31T00:45:45;18.20;99.90
19435;DHT22;9853;50.848;4.108;2023-07-31T00:47:45;18.40;99.90
19435;DHT22;9853;50.848;4.108;2023-07-31T00:49:46;18.30;99.90
19435;DHT22;9853;50.848;4.108;2023-07-31T00:51:48;18.40;99.90
19435;DHT22;9853;50.848;4.108;2023-07-31T00:53:49;18.20;99.90
19435;DHT22;9853;50.848;4.108;2023-07-31T00:55:50;18.10;99.90
19435;DHT22;9853;50.848;4.108;2023-07-31T00:57:51;18.20;99.90
19435;DHT22;9853;50.848;4.108;2023-07-31T00:59:53;18.20;99.90
19435;DHT22;9853;50.848;4.108;2023-07-31T01:01:54;18.10;99.90
19435;DHT22;9853;50.848;4.108;2023-07-31T01:03:56;18.20;99.90
19435;DHT22;9853;50.848;4.108;2023-07-31T01:06:22;18.20;99.90
19435;DHT22;9853;50.848;4.108;2023-07-31T01:10:56;18.20;99.90
19435;DHT22;9853;50.848;4.108;2023-07-31T01:13:02;18.30;99.90
19435;DHT22;9853;50.848;4.108;2023-07-31T01:15:08;18.20;99.90
19435;DHT22;9853;50.848;4.108;2023-07-31T01:17:12;18.00;99.90
19435;DHT22;9853;50.848;4.108;2023-07-31T01:19:14;18.10;99.90
19435;DHT22;9853;50.848;4.108;2023-07-31T01:26:11;18.10;99.90
19435;DHT22;9853;50.848;4.108;2023-07-31T01:28:14;18.00;99.90
19435;DHT22;9853;50.848;4.108;2023-07-31T01:30:25;18.00;99.90
19435;DHT22;9853;50.848;4.108;2023-07-31T01:32:28;18.00;99.90
19435;DHT22;9853;50.848;4.108;2023-07-31T01:34:30;18.00;99.90
19435;DHT22;9853;50.848;4.108;2023-07-31T01:36:32;17.90;99.90
19435;DHT22;9853;50.848;4.108;2023-07-31T01:38:34;18.00;99.90
19435;DHT22;9853;50.848;4.108;2023-07-31T01:40:36;18.00;99.90
19435;DHT22;9853;50.848;4.108;2023-07-31T01:42:37;18.10;99.90
19435;DHT22;9853;50.848;4.108;2023-07-31T01:44:39;18.00;99.90
19435;DHT22;9853;50.848;4.108;2023-07-31T01:46:39;18.20;99.90
19435;DHT22;9853;50.848;4.108;2023-07-31T01:48:40;18.30;99.90
19435;DHT22;9853;50.848;4.108;2023-07-31T01:50:41;18.30;99.90
19435;DHT22;9853;50.848;4.108;2023-07-31T01:52:42;18.30;99.90
19435;DHT22;9853;50.848;4.108;2023-07-31T01:54:43;18.40;99.90
19435;DHT22;9853;50.848;4.108;2023-07-31T01:56:44;18.40;99.90
19435;DHT22;9853;50.848;4.108;2023-07-31T01:58:44;18.40;99.90
19435;DHT22;9853;50.848;4.108;2023-07-31T02:00:45;18.40;99.90
19435;DHT22;9853;50.848;4.108;2023-07-31T02:02:46;18.30;99.90
19435;DHT22;9853;50.848;4.108;2023-07-31T02:04:47;18.30;99.90
19435;DHT22;9853;50.848;4.108;2023-07-31T02:06:48;18.30;99.90
19435;DHT22;9853;50.848;4.108;2023-07-31T02:08:49;18.30;99.90
19435;DHT22;9853;50.848;4.108;2023-07-31T02:10:50;18.40;99.90
19435;DHT22;9853;50.848;4.108;2023-07-31T02:12:50;18.30;99.90
19435;DHT22;9853;50.848;4.108;2023-07-31T02:14:51;18.30;99.90
19435;DHT22;9853;50.848;4.108;2023-07-31T02:16:52;18.20;99.90
19435;DHT22;9853;50.848;4.108;2023-07-31T02:18:52;18.30;99.90
19435;DHT22;9853;50.848;4.108;2023-07-31T02:20:53;18.40;99.90
19435;DHT22;9853;50.848;4.108;2023-07-31T02:22:54;18.40;99.90
19435;DHT22;9853;50.848;4.108;2023-07-31T02:24:55;18.50;99.90
19435;DHT22;9853;50.848;4.108;2023-07-31T02:26:56;18.60;99.90
19435;DHT22;9853;50.848;4.108;2023-07-31T02:28:57;18.50;99.90
19435;DHT22;9853;50.848;4.108;2023-07-31T02:30:58;18.50;99.90
19435;DHT22;9853;50.848;4.108;2023-07-31T02:32:58;18.60;99.90
19435;DHT22;9853;50.848;4.108;2023-07-31T02:35:00;18.50;99.90
19435;DHT22;9853;50.848;4.108;2023-07-31T02:37:01;18.40;99.90
19435;DHT22;9853;50.848;4.108;2023-07-31T02:39:02;18.50;99.90
19435;DHT22;9853;50.848;4.108;2023-07-31T02:41:03;18.40;99.90
19435;DHT22;9853;50.848;4.108;2023-07-31T02:43:03;18.50;99.90
19435;DHT22;9853;50.848;4.108;2023-07-31T02:45:05;18.50;99.90
19435;DHT22;9853;50.848;4.108;2023-07-31T02:47:06;18.50;99.90
19435;DHT22;9853;50.848;4.108;2023-07-31T02:49:08;18.40;99.90
19435;DHT22;9853;50.848;4.108;2023-07-31T02:51:09;18.30;99.90
19435;DHT22;9853;50.848;4.108;2023-07-31T02:53:09;18.30;99.90
19435;DHT22;9853;50.848;4.108;2023-07-31T02:55:10;18.20;99.90
19435;DHT22;9853;50.848;4.108;2023-07-31T02:57:11;18.30;99.90
19435;DHT22;9853;50.848;4.108;2023-07-31T02:59:12;18.40;99.90
19435;DHT22;9853;50.848;4.108;2023-07-31T03:01:12;18.20;99.90
19435;DHT22;9853;50.848;4.108;2023-07-31T03:03:13;18.30;99.90
19435;DHT22;9853;50.848;4.108;2023-07-31T03:05:14;18.30;99.90
19435;DHT22;9853;50.848;4.108;2023-07-31T03:07:15;18.10;99.90
19435;DHT22;9853;50.848;4.108;2023-07-31T03:09:16;18.10;99.90
19435;DHT22;9853;50.848;4.108;2023-07-31T03:11:18;18.40;99.90
19435;DHT22;9853;50.848;4.108;2023-07-31T03:13:18;18.30;99.90
19435;DHT22;9853;50.848;4.108;2023-07-31T03:15:19;18.20;99.90
19435;DHT22;9853;50.848;4.108;2023-07-31T03:17:20;18.20;99.90
19435;DHT22;9853;50.848;4.108;2023-07-31T03:19:21;18.20;99.90
19435;DHT22;9853;50.848;4.108;2023-07-31T03:21:22;18.20;99.90
19435;DHT22;9853;50.848;4.108;2023-07-31T03:23:23;18.10;99.90
19435;DHT22;9853;50.848;4.108;2023-07-31T03:25:25;18.30;99.90
19435;DHT22;9853;50.848;4.108;2023-07-31T03:27:26;18.30;99.90
19435;DHT22;9853;50.848;4.108;2023-07-31T03:29:27;18.30;99.90
19435;DHT22;9853;50.848;4.108;2023-07-31T03:31:28;18.10;99.90
19435;DHT22;9853;50.848;4.108;2023-07-31T03:33:29;18.20;99.90
19435;DHT22;9853;50.848;4.108;2023-07-31T03:35:30;17.90;99.90
19435;DHT22;9853;50.848;4.108;2023-07-31T03:37:30;17.90;99.90
19435;DHT22;9853;50.848;4.108;2023-07-31T03:39:31;17.90;99.90
19435;DHT22;9853;50.848;4.108;2023-07-31T03:41:32;18.00;99.90
19435;DHT22;9853;50.848;4.108;2023-07-31T03:43:33;18.10;99.90
19435;DHT22;9853;50.848;4.108;2023-07-31T03:45:37;18.10;99.90
19435;DHT22;9853;50.848;4.108;2023-07-31T03:47:38;18.00;99.90
19435;DHT22;9853;50.848;4.108;2023-07-31T03:49:38;17.90;99.90
19435;DHT22;9853;50.848;4.108;2023-07-31T03:51:39;18.00;99.90
19435;DHT22;9853;50.848;4.108;2023-07-31T03:53:40;18.20;99.90
19435;DHT22;9853;50.848;4.108;2023-07-31T03:55:41;18.20;99.90
19435;DHT22;9853;50.848;4.108;2023-07-31T03:57:41;18.10;99.90
19435;DHT22;9853;50.848;4.108;2023-07-31T03:59:42;18.20;99.90
19435;DHT22;9853;50.848;4.108;2023-07-31T04:01:43;18.10;99.90
19435;DHT22;9853;50.848;4.108;2023-07-31T04:03:44;18.10;99.90
19435;DHT22;9853;50.848;4.108;2023-07-31T04:05:45;18.00;99.90
19435;DHT22;9853;50.848;4.108;2023-07-31T04:07:45;18.00;99.90
19435;DHT22;9853;50.848;4.108;2023-07-31T04:09:46;18.00;99.90
19435;DHT22;9853;50.848;4.108;2023-07-31T04:11:47;18.20;99.90
19435;DHT22;9853;50.848;4.108;2023-07-31T04:13:48;18.20;99.90
19435;DHT22;9853;50.848;4.108;2023-07-31T04:15:49;18.10;99.90
19435;DHT22;9853;50.848;4.108;2023-07-31T04:17:51;18.20;99.90
19435;DHT22;9853;50.848;4.108;2023-07-31T04:19:52;18.10;99.90
19435;DHT22;9853;50.848;4.108;2023-07-31T04:21:53;18.20;99.90
19435;DHT22;9853;50.848;4.108;2023-07-31T04:23:54;18.10;99.90
19435;DHT22;9853;50.848;4.108;2023-07-31T04:25:56;18.00;99.90
19435;DHT22;9853;50.848;4.108;2023-07-31T04:27:57;18.00;99.90
19435;DHT22;9853;50.848;4.108;2023-07-31T04:29:58;18.10;99.90
19435;DHT22;9853;50.848;4.108;2023-07-31T04:31:58;18.00;99.90
19435;DHT22;9853;50.848;4.108;2023-07-31T04:33:59;17.90;99.90
19435;DHT22;9853;50.848;4.108;2023-07-31T04:36:00;18.00;99.90
19435;DHT22;9853;50.848;4.108;2023-07-31T04:38:01;18.00;99.90
19435;DHT22;9853;50.848;4.108;2023-07-31T04:40:02;18.00;99.90
19435;DHT22;9853;50.848;4.108;2023-07-31T04:42:03;17.90;99.90
19435;DHT22;9853;50.848;4.108;2023-07-31T04:44:04;18.00;99.90
19435;DHT22;9853;50.848;4.108;2023-07-31T04:46:05;17.90;99.90
19435;DHT22;9853;50.848;4.108;2023-07-31T04:48:06;17.90;99.90
19435;DHT22;9853;50.848;4.108;2023-07-31T04:50:07;18.00;99.90
19435;DHT22;9853;50.848;4.108;2023-07-31T04:52:08;17.90;99.90
19435;DHT22;9853;50.848;4.108;2023-07-31T04:54:09;17.90;99.90
19435;DHT22;9853;50.848;4.108;2023-07-31T04:56:10;17.80;99.90
19435;DHT22;9853;50.848;4.108;2023-07-31T04:58:10;17.60;99.90
19435;DHT22;9853;50.848;4.108;2023-07-31T05:00:11;17.70;99.90
19435;DHT22;9853;50.848;4.108;2023-07-31T05:02:12;17.70;99.90
19435;DHT22;9853;50.848;4.108;2023-07-31T05:04:16;17.60;99.90
19435;DHT22;9853;50.848;4.108;2023-07-31T05:06:17;17.60;99.90
19435;DHT22;9853;50.848;4.108;2023-07-31T05:08:18;17.60;99.90
19435;DHT22;9853;50.848;4.108;2023-07-31T05:10:18;17.60;99.90
19435;DHT22;9853;50.848;4.108;2023-07-31T05:12:19;17.50;99.90
19435;DHT22;9853;50.848;4.108;2023-07-31T05:14:20;17.60;99.90
19435;DHT22;9853;50.848;4.108;2023-07-31T05:16:21;17.50;99.90
19435;DHT22;9853;50.848;4.108;2023-07-31T05:18:22;17.50;99.90
19435;DHT22;9853;50.848;4.108;2023-07-31T05:20:23;17.50;99.90
19435;DHT22;9853;50.848;4.108;2023-07-31T05:22:24;17.60;99.90
19435;DHT22;9853;50.848;4.108;2023-07-31T05:24:24;17.50;99.90
19435;DHT22;9853;50.848;4.108;2023-07-31T05:26:25;17.50;99.90
19435;DHT22;9853;50.848;4.108;2023-07-31T05:28:26;17.50;99.90
19435;DHT22;9853;50.848;4.108;2023-07-31T05:30:29;17.60;99.90
19435;DHT22;9853;50.848;4.108;2023-07-31T05:32:30;17.70;99.90
19435;DHT22;9853;50.848;4.108;2023-07-31T05:34:30;17.70;99.90
19435;DHT22;9853;50.848;4.108;2023-07-31T05:36:31;17.50;99.90
19435;DHT22;9853;50.848;4.108;2023-07-31T05:38:32;17.40;99.90
19435;DHT22;9853;50.848;4.108;2023-07-31T05:40:33;17.40;99.90
19435;DHT22;9853;50.848;4.108;2023-07-31T05:42:34;17.60;99.90
19435;DHT22;9853;50.848;4.108;2023-07-31T05:44:37;17.60;99.90
19435;DHT22;9853;50.848;4.108;2023-07-31T05:46:37;17.50;99.90
19435;DHT22;9853;50.848;4.108;2023-07-31T05:48:38;17.40;99.90
19435;DHT22;9853;50.848;4.108;2023-07-31T05:50:39;17.40;99.90
19435;DHT22;9853;50.848;4.108;2023-07-31T05:52:40;17.50;99.90
19435;DHT22;9853;50.848;4.108;2023-07-31T05:54:42;17.50;99.90
19435;DHT22;9853;50.848;4.108;2023-07-31T05:56:43;17.50;99.90
19435;DHT22;9853;50.848;4.108;2023-07-31T05:58:44;17.50;99.90
19435;DHT22;9853;50.848;4.108;2023-07-31T06:00:44;17.60;99.90
19435;DHT22;9853;50.848;4.108;2023-07-31T06:02:46;17.60;99.90
19435;DHT22;9853;50.848;4.108;2023-07-31T06:04:47;17.50;99.90
19435;DHT22;9853;50.848;4.108;2023-07-31T06:06:48;17.40;99.90
19435;DHT22;9853;50.848;4.108;2023-07-31T06:08:49;17.40;99.90
19435;DHT22;9853;50.848;4.108;2023-07-31T06:10:50;17.40;99.90
19435;DHT22;9853;50.848;4.108;2023-07-31T06:12:51;17.50;99.90
19435;DHT22;9853;50.848;4.108;2023-07-31T06:14:52;17.60;99.90
19435;DHT22;9853;50.848;4.108;2023-07-31T06:16:52;17.60;99.90
19435;DHT22;9853;50.848;4.108;2023-07-31T06:18:53;17.60;99.90
19435;DHT22;9853;50.848;4.108;2023-07-31T06:20:54;17.70;99.90
19435;DHT22;9853;50.848;4.108;2023-07-31T06:22:55;17.60;99.90
19435;DHT22;9853;50.848;4.108;2023-07-31T06:24:56;17.80;99.90
19435;DHT22;9853;50.848;4.108;2023-07-31T06:26:57;17.70;99.90
19435;DHT22;9853;50.848;4.108;2023-07-31T06:28:58;18.00;99.90
19435;DHT22;9853;50.848;4.108;2023-07-31T06:30:59;18.00;99.90
19435;DHT22;9853;50.848;4.108;2023-07-31T06:32:59;18.00;99.90
19435;DHT22;9853;50.848;4.108;2023-07-31T06:35:00;17.80;99.90
19435;DHT22;9853;50.848;4.108;2023-07-31T06:37:01;17.70;99.90
19435;DHT22;9853;50.848;4.108;2023-07-31T06:39:02;17.80;99.90
19435;DHT22;9853;50.848;4.108;2023-07-31T06:41:02;17.90;99.90
19435;DHT22;9853;50.848;4.108;2023-07-31T06:43:05;18.00;99.90
19435;DHT22;9853;50.848;4.108;2023-07-31T06:45:08;17.90;99.90
19435;DHT22;9853;50.848;4.108;2023-07-31T06:47:09;17.90;99.90
19435;DHT22;9853;50.848;4.108;2023-07-31T06:49:10;18.10;99.90
19435;DHT22;9853;50.848;4.108;2023-07-31T06:51:11;18.20;99.90
19435;DHT22;9853;50.848;4.108;2023-07-31T06:53:12;18.30;99.90
19435;DHT22;9853;50.848;4.108;2023-07-31T06:55:20;18.50;99.90
19435;DHT22;9853;50.848;4.108;2023-07-31T06:57:22;18.30;99.90
19435;DHT22;9853;50.848;4.108;2023-07-31T06:59:22;18.50;99.90
19435;DHT22;9853;50.848;4.108;2023-07-31T07:01:23;18.40;99.90
19435;DHT22;9853;50.848;4.108;2023-07-31T07:03:24;18.40;99.90
19435;DHT22;9853;50.848;4.108;2023-07-31T07:05:25;18.30;99.90
19435;DHT22;9853;50.848;4.108;2023-07-31T07:07:26;18.40;99.90
19435;DHT22;9853;50.848;4.108;2023-07-31T07:09:27;18.10;99.90
19435;DHT22;9853;50.848;4.108;2023-07-31T07:11:28;18.10;99.90
19435;DHT22;9853;50.848;4.108;2023-07-31T07:13:31;18.30;99.90
19435;DHT22;9853;50.848;4.108;2023-07-31T07:15:32;18.40;99.90
19435;DHT22;9853;50.848;4.108;2023-07-31T07:17:33;18.40;99.90
19435;DHT22;9853;50.848;4.108;2023-07-31T07:19:34;18.50;99.90
19435;DHT22;9853;50.848;4.108;2023-07-31T07:21:34;18.60;99.90
19435;DHT22;9853;50.848;4.108;2023-07-31T07:23:35;18.60;99.90
19435;DHT22;9853;50.848;4.108;2023-07-31T07:25:37;18.60;99.90
19435;DHT22;9853;50.848;4.108;2023-07-31T07:27:38;18.30;99.90
19435;DHT22;9853;50.848;4.108;2023-07-31T07:29:39;18.30;99.90
19435;DHT22;9853;50.848;4.108;2023-07-31T07:31:40;18.30;99.90
19435;DHT22;9853;50.848;4.108;2023-07-31T07:33:40;18.30;99.90
19435;DHT22;9853;50.848;4.108;2023-07-31T07:35:41;18.50;99.90
19435;DHT22;9853;50.848;4.108;2023-07-31T07:37:42;18.70;99.90
19435;DHT22;9853;50.848;4.108;2023-07-31T07:39:43;18.70;99.90
19435;DHT22;9853;50.848;4.108;2023-07-31T07:41:44;18.80;99.90
19435;DHT22;9853;50.848;4.108;2023-07-31T07:43:44;18.60;99.90
19435;DHT22;9853;50.848;4.108;2023-07-31T07:45:45;18.70;99.90
19435;DHT22;9853;50.848;4.108;2023-07-31T07:47:46;18.80;99.90
19435;DHT22;9853;50.848;4.108;2023-07-31T07:49:47;19.00;99.90
19435;DHT22;9853;50.848;4.108;2023-07-31T07:51:48;19.00;99.90
19435;DHT22;9853;50.848;4.108;2023-07-31T07:53:49;18.90;99.90
19435;DHT22;9853;50.848;4.108;2023-07-31T07:55:49;18.90;99.90
19435;DHT22;9853;50.848;4.108;2023-07-31T07:57:50;18.90;99.90
19435;DHT22;9853;50.848;4.108;2023-07-31T07:59:51;18.80;99.90
19435;DHT22;9853;50.848;4.108;2023-07-31T08:01:52;19.00;99.90
19435;DHT22;9853;50.848;4.108;2023-07-31T08:03:52;19.00;99.90
19435;DHT22;9853;50.848;4.108;2023-07-31T08:06:00;19.10;99.90
19435;DHT22;9853;50.848;4.108;2023-07-31T08:08:01;19.10;99.90
19435;DHT22;9853;50.848;4.108;2023-07-31T08:10:02;19.30;99.90
19435;DHT22;9853;50.848;4.108;2023-07-31T08:12:03;19.40;99.90
19435;DHT22;9853;50.848;4.108;2023-07-31T08:14:04;19.40;99.90
19435;DHT22;9853;50.848;4.108;2023-07-31T08:16:05;19.30;99.90
19435;DHT22;9853;50.848;4.108;2023-07-31T08:18:06;19.30;99.90
19435;DHT22;9853;50.848;4.108;2023-07-31T08:20:07;19.10;99.90
19435;DHT22;9853;50.848;4.108;2023-07-31T08:22:08;19.00;99.90
19435;DHT22;9853;50.848;4.108;2023-07-31T08:24:09;19.20;99.90
19435;DHT22;9853;50.848;4.108;2023-07-31T08:26:16;19.00;99.90
19435;DHT22;9853;50.848;4.108;2023-07-31T08:28:18;18.90;99.90
19435;DHT22;9853;50.848;4.108;2023-07-31T08:30:19;18.90;99.90
19435;DHT22;9853;50.848;4.108;2023-07-31T08:32:20;19.00;99.90
19435;DHT22;9853;50.848;4.108;2023-07-31T08:34:21;18.80;99.90
19435;DHT22;9853;50.848;4.108;2023-07-31T08:36:21;19.10;99.90
19435;DHT22;9853;50.848;4.108;2023-07-31T08:38:26;19.20;99.90
19435;DHT22;9853;50.848;4.108;2023-07-31T08:40:27;19.00;99.90
19435;DHT22;9853;50.848;4.108;2023-07-31T08:42:29;19.00;99.90
19435;DHT22;9853;50.848;4.108;2023-07-31T08:44:30;19.10;99.90
19435;DHT22;9853;50.848;4.108;2023-07-31T08:46:32;19.10;99.90
19435;DHT22;9853;50.848;4.108;2023-07-31T08:48:35;19.20;99.90
19435;DHT22;9853;50.848;4.108;2023-07-31T08:50:39;19.30;99.90
19435;DHT22;9853;50.848;4.108;2023-07-31T08:52:40;19.20;99.90
19435;DHT22;9853;50.848;4.108;2023-07-31T08:54:41;19.30;99.90
19435;DHT22;9853;50.848;4.108;2023-07-31T08:56:42;19.30;99.90
19435;DHT22;9853;50.848;4.108;2023-07-31T08:58:44;19.10;99.90
19435;DHT22;9853;50.848;4.108;2023-07-31T09:00:46;19.10;99.90
19435;DHT22;9853;50.848;4.108;2023-07-31T09:02:56;19.00;99.90
19435;DHT22;9853;50.848;4.108;2023-07-31T09:04:58;19.10;99.90
19435;DHT22;9853;50.848;4.108;2023-07-31T09:07:03;19.10;99.90
19435;DHT22;9853;50.848;4.108;2023-07-31T09:09:04;19.20;99.90
19435;DHT22;9853;50.848;4.108;2023-07-31T09:11:05;19.30;99.90
19435;DHT22;9853;50.848;4.108;2023-07-31T09:13:06;19.20;99.90
19435;DHT22;9853;50.848;4.108;2023-07-31T09:15:07;19.30;99.90
19435;DHT22;9853;50.848;4.108;2023-07-31T09:17:09;19.40;99.90
19435;DHT22;9853;50.848;4.108;2023-07-31T09:19:09;19.50;99.90
19435;DHT22;9853;50.848;4.108;2023-07-31T09:21:10;19.50;99.90
19435;DHT22;9853;50.848;4.108;2023-07-31T09:23:13;19.50;99.90
19435;DHT22;9853;50.848;4.108;2023-07-31T09:25:22;19.30;99.90
19435;DHT22;9853;50.848;4.108;2023-07-31T09:27:23;19.40;99.90
19435;DHT22;9853;50.848;4.108;2023-07-31T09:29:24;19.70;99.90
19435;DHT22;9853;50.848;4.108;2023-07-31T09:31:42;19.60;99.90
19435;DHT22;9853;50.848;4.108;2023-07-31T09:33:54;19.80;99.90
19435;DHT22;9853;50.848;4.108;2023-07-31T09:35:58;19.30;99.90
19435;DHT22;9853;50.848;4.108;2023-07-31T09:38:05;19.10;99.90
19435;DHT22;9853;50.848;4.108;2023-07-31T09:40:06;19.10;99.90
19435;DHT22;9853;50.848;4.108;2023-07-31T09:42:07;19.00;99.90
19435;DHT22;9853;50.848;4.108;2023-07-31T09:44:08;19.40;99.90
19435;DHT22;9853;50.848;4.108;2023-07-31T09:46:13;19.50;99.90
19435;DHT22;9853;50.848;4.108;2023-07-31T09:48:18;19.40;99.90
19435;DHT22;9853;50.848;4.108;2023-07-31T09:50:21;19.30;99.90
19435;DHT22;9853;50.848;4.108;2023-07-31T09:52:22;19.30;99.90
19435;DHT22;9853;50.848;4.108;2023-07-31T09:54:22;19.20;99.90
19435;DHT22;9853;50.848;4.108;2023-07-31T09:56:24;19.20;99.90
19435;DHT22;9853;50.848;4.108;2023-07-31T09:58:28;19.30;99.90
19435;DHT22;9853;50.848;4.108;2023-07-31T10:00:30;19.60;99.90
19435;DHT22;9853;50.848;4.108;2023-07-31T10:02:32;19.50;99.90
19435;DHT22;9853;50.848;4.108;2023-07-31T10:04:33;19.30;99.90
19435;DHT22;9853;50.848;4.108;2023-07-31T10:06:35;19.40;99.90
19435;DHT22;9853;50.848;4.108;2023-07-31T10:08:37;19.50;99.90
19435;DHT22;9853;50.848;4.108;2023-07-31T10:10:41;19.40;99.90
19435;DHT22;9853;50.848;4.108;2023-07-31T10:12:44;19.40;99.90
19435;DHT22;9853;50.848;4.108;2023-07-31T10:14:46;19.50;99.90
19435;DHT22;9853;50.848;4.108;2023-07-31T10:16:47;19.70;99.90
19435;DHT22;9853;50.848;4.108;2023-07-31T10:18:49;19.80;99.90
19435;DHT22;9853;50.848;4.108;2023-07-31T10:20:51;19.90;99.90
19435;DHT22;9853;50.848;4.108;2023-07-31T10:22:54;19.70;99.90
19435;DHT22;9853;50.848;4.108;2023-07-31T10:24:58;19.50;99.90
19435;DHT22;9853;50.848;4.108;2023-07-31T10:27:01;19.60;99.90
19435;DHT22;9853;50.848;4.108;2023-07-31T10:29:04;19.70;99.90
19435;DHT22;9853;50.848;4.108;2023-07-31T10:31:05;19.80;99.90
19435;DHT22;9853;50.848;4.108;2023-07-31T10:33:07;19.90;99.90
19435;DHT22;9853;50.848;4.108;2023-07-31T10:35:09;19.80;99.90
19435;DHT22;9853;50.848;4.108;2023-07-31T10:37:26;19.90;99.90
19435;DHT22;9853;50.848;4.108;2023-07-31T10:39:34;19.70;99.90
19435;DHT22;9853;50.848;4.108;2023-07-31T10:41:36;20.00;99.90
19435;DHT22;9853;50.848;4.108;2023-07-31T10:43:37;20.20;99.90
19435;DHT22;9853;50.848;4.108;2023-07-31T10:45:44;20.20;99.90
19435;DHT22;9853;50.848;4.108;2023-07-31T10:47:46;20.10;99.90
19435;DHT22;9853;50.848;4.108;2023-07-31T10:49:47;20.30;99.90
19435;DHT22;9853;50.848;4.108;2023-07-31T10:51:49;20.50;99.90
19435;DHT22;9853;50.848;4.108;2023-07-31T10:54:10;20.50;99.90
19435;DHT22;9853;50.848;4.108;2023-07-31T10:56:11;20.90;99.90
19435;DHT22;9853;50.848;4.108;2023-07-31T10:58:18;20.90;99.90
19435;DHT22;9853;50.848;4.108;2023-07-31T11:00:21;21.00;99.90
19435;DHT22;9853;50.848;4.108;2023-07-31T11:02:26;20.90;99.90
19435;DHT22;9853;50.848;4.108;2023-07-31T11:04:28;21.00;99.90
19435;DHT22;9853;50.848;4.108;2023-07-31T11:06:31;21.00;99.90
19435;DHT22;9853;50.848;4.108;2023-07-31T11:08:33;20.70;99.90
19435;DHT22;9853;50.848;4.108;2023-07-31T11:10:34;20.50;99.90
19435;DHT22;9853;50.848;4.108;2023-07-31T11:12:36;20.30;99.90
19435;DHT22;9853;50.848;4.108;2023-07-31T11:14:37;20.40;99.90
19435;DHT22;9853;50.848;4.108;2023-07-31T11:16:41;20.30;99.90
19435;DHT22;9853;50.848;4.108;2023-07-31T11:18:43;20.30;99.90
19435;DHT22;9853;50.848;4.108;2023-07-31T11:20:45;20.30;99.90
19435;DHT22;9853;50.848;4.108;2023-07-31T11:22:46;20.30;99.90
19435;DHT22;9853;50.848;4.108;2023-07-31T11:24:48;20.30;99.90
19435;DHT22;9853;50.848;4.108;2023-07-31T11:26:52;20.40;99.90
19435;DHT22;9853;50.848;4.108;2023-07-31T11:28:53;20.30;99.90
19435;DHT22;9853;50.848;4.108;2023-07-31T11:30:55;20.10;99.90
19435;DHT22;9853;50.848;4.108;2023-07-31T11:32:56;20.00;99.90
19435;DHT22;9853;50.848;4.108;2023-07-31T11:34:57;20.20;99.90
19435;DHT22;9853;50.848;4.108;2023-07-31T11:36:58;20.10;99.90
19435;DHT22;9853;50.848;4.108;2023-07-31T11:39:09;20.00;99.90
19435;DHT22;9853;50.848;4.108;2023-07-31T11:41:10;19.90;99.90
19435;DHT22;9853;50.848;4.108;2023-07-31T11:43:13;19.80;99.90
19435;DHT22;9853;50.848;4.108;2023-07-31T11:45:17;19.80;99.90
19435;DHT22;9853;50.848;4.108;2023-07-31T11:47:18;20.00;99.90
19435;DHT22;9853;50.848;4.108;2023-07-31T11:49:21;20.20;99.90
19435;DHT22;9853;50.848;4.108;2023-07-31T11:51:22;20.30;99.90
19435;DHT22;9853;50.848;4.108;2023-07-31T11:53:36;20.20;99.90
19435;DHT22;9853;50.848;4.108;2023-07-31T11:55:39;20.10;99.90
19435;DHT22;9853;50.848;4.108;2023-07-31T11:57:41;20.00;99.90
19435;DHT22;9853;50.848;4.108;2023-07-31T11:59:44;20.10;99.90
19435;DHT22;9853;50.848;4.108;2023-07-31T12:01:45;20.10;99.90
19435;DHT22;9853;50.848;4.108;2023-07-31T12:03:47;20.10;99.90
19435;DHT22;9853;50.848;4.108;2023-07-31T12:05:48;20.20;99.90
19435;DHT22;9853;50.848;4.108;2023-07-31T12:07:54;20.20;99.90
19435;DHT22;9853;50.848;4.108;2023-07-31T12:09:56;20.20;99.90
19435;DHT22;9853;50.848;4.108;2023-07-31T12:11:57;20.10;99.90
19435;DHT22;9853;50.848;4.108;2023-07-31T12:13:58;20.20;99.90
19435;DHT22;9853;50.848;4.108;2023-07-31T12:16:03;20.30;99.90
19435;DHT22;9853;50.848;4.108;2023-07-31T12:18:11;20.10;99.90
19435;DHT22;9853;50.848;4.108;2023-07-31T12:20:12;20.10;99.90
19435;DHT22;9853;50.848;4.108;2023-07-31T12:22:14;20.00;99.90
19435;DHT22;9853;50.848;4.108;2023-07-31T12:24:18;20.10;99.90
19435;DHT22;9853;50.848;4.108;2023-07-31T12:26:19;20.10;99.90
19435;DHT22;9853;50.848;4.108;2023-07-31T12:28:22;20.10;99.90
19435;DHT22;9853;50.848;4.108;2023-07-31T12:30:34;20.10;99.90
19435;DHT22;9853;50.848;4.108;2023-07-31T12:32:35;20.10;99.90
19435;DHT22;9853;50.848;4.108;2023-07-31T12:34:42;20.30;99.90
19435;DHT22;9853;50.848;4.108;2023-07-31T12:36:44;20.40;99.90
19435;DHT22;9853;50.848;4.108;2023-07-31T12:38:48;20.80;99.90
19435;DHT22;9853;50.848;4.108;2023-07-31T12:40:52;21.20;99.90
19435;DHT22;9853;50.848;4.108;2023-07-31T12:42:53;21.00;99.90
19435;DHT22;9853;50.848;4.108;2023-07-31T12:44:54;20.80;99.90
19435;DHT22;9853;50.848;4.108;2023-07-31T12:46:55;20.50;99.90
19435;DHT22;9853;50.848;4.108;2023-07-31T12:48:55;20.30;99.90
19435;DHT22;9853;50.848;4.108;2023-07-31T12:50:56;20.10;99.90
19435;DHT22;9853;50.848;4.108;2023-07-31T12:52:59;20.10;99.90
19435;DHT22;9853;50.848;4.108;2023-07-31T12:55:00;20.30;99.90
19435;DHT22;9853;50.848;4.108;2023-07-31T12:57:01;20.30;99.90
19435;DHT22;9853;50.848;4.108;2023-07-31T12:59:02;20.40;99.90
19435;DHT22;9853;50.848;4.108;2023-07-31T13:01:03;20.60;99.90
19435;DHT22;9853;50.848;4.108;2023-07-31T13:03:03;20.40;99.90
19435;DHT22;9853;50.848;4.108;2023-07-31T13:05:04;20.40;99.90
19435;DHT22;9853;50.848;4.108;2023-07-31T13:07:05;20.10;99.90
19435;DHT22;9853;50.848;4.108;2023-07-31T13:09:06;20.00;99.90